Latest Coastal Weather Observations for Hogan Island

IDV60701

Issued at 2:15 pm EST Tuesday 23 September 2014 (issued every 10 minutes, with the page automatically refreshed every 10 minutes)

About coastal observations | Map of coastal stations | Coastal observations for VIC | Marine services | Other Formats
Station Details ID: 200838 Name: HOGAN ISLAND Lat: -39.22 Lon: 146.98 Height: 116.0 m
Data from the previous 72 hours. | See also: Recent months at Hogan Island
Date/Time
EST
Temp

°C
Wind Pressure Rain
since 9am
mm
Weather Cloud Vis
km
Sea
Height
m
Swell
Dir
 
Speed
knots
Gust
knots
hPa Trend Height
m
Period
s
Dir
23/02:00pm 19.2 NE 4 5 1024.4 - 0.0 - - - - - - -
23/01:30pm 19.5 NNE 4 5 1024.7 - 0.0 - - - - - - -
23/01:00pm 20.1 N 4 5 1024.9 - 0.0 - - - - - - -
23/12:30pm 19.3 NNE 5 7 1025.2 - 0.0 - - - - - - -
23/12:00pm 19.5 NNE 5 7 1025.8 - 0.0 - - - - - - -
23/11:30am 19.3 NNE 5 6 1025.9 - 0.0 - - - - - - -
23/11:00am 18.5 NNE 5 7 1026.3 - 0.0 - - - - - - -
23/10:30am 18.4 NNW 8 9 1026.5 - 0.0 - - - - - - -
23/10:00am 17.5 N 9 11 1026.9 - 0.0 - - - - - - -
23/09:30am 16.4 N 9 11 1027.0 - 0.0 - - - - - - -
23/09:00am 17.0 N 9 12 1027.4 - 0.0 - - - - - - -
23/08:30am 16.5 N 10 13 1027.1 - 0.0 - - - - - - -
23/08:00am 16.0 N 7 11 1027.0 - 0.0 - - - - - - -
23/07:30am 15.0 NNW 9 13 1027.0 - 0.0 - - - - - - -
23/07:00am 14.7 N 10 13 1027.0 - 0.0 - - - - - - -
23/06:30am 13.7 N 10 12 1026.9 - 0.0 - - - - - - -
23/06:00am 13.6 N 11 13 1026.9 - 0.0 - - - - - - -
23/05:30am 13.2 N 9 11 1026.6 - 0.0 - - - - - - -
23/05:00am 13.6 N 10 12 1026.4 - 0.0 - - - - - - -
23/04:30am 13.6 N 10 12 1026.4 - 0.0 - - - - - - -
23/04:00am 13.5 N 10 12 1026.3 - 0.0 - - - - - - -
23/03:30am 13.9 NNW 9 11 1026.3 - 0.0 - - - - - - -
23/03:00am 13.1 N 10 12 1026.5 - 0.0 - - - - - - -
23/02:30am 12.9 NNW 10 11 1026.6 - 0.0 - - - - - - -
23/02:00am 12.1 N 11 13 1026.6 - 0.0 - - - - - - -
23/01:30am 12.0 N 12 14 1026.8 - 0.0 - - - - - - -
23/01:00am 12.0 N 12 15 1027.0 - 0.0 - - - - - - -
23/12:30am 11.8 N 12 15 1027.1 - 0.0 - - - - - - -
23/12:00am 11.9 N 11 14 1027.4 - 0.0 - - - - - - -
 
Date/Time
EST
Temp

°C
Wind Pressure Rain
since 9am
mm
Weather Cloud Vis
km
Sea
Height
m
Swell
Dir
 
Speed
knots
Gust
knots
hPa Trend Height
m
Period
s
Dir
22/11:30pm 11.9 N 11 13 1027.4 - 0.0 - - - - - - -
22/11:00pm 11.8 N 11 14 1027.7 - 0.0 - - - - - - -
22/10:30pm 11.6 N 11 13 1027.9 - 0.0 - - - - - - -
22/10:00pm 11.6 N 13 16 1027.7 - 0.0 - - - - - - -
22/09:30pm 11.5 N 13 15 1027.7 - 0.0 - - - - - - -
22/09:00pm 11.4 N 13 15 1027.9 - 0.0 - - - - - - -
22/08:30pm 11.3 NNE 13 15 1027.6 - 0.0 - - - - - - -
22/08:00pm 11.3 NNE 12 14 1027.6 - 0.0 - - - - - - -
22/07:30pm 11.3 NNE 12 14 1027.7 - 0.0 - - - - - - -
22/07:00pm 11.1 NNE 12 13 1027.7 - 0.0 - - - - - - -
22/06:30pm 11.1 NE 10 11 1027.4 - 0.0 - - - - - - -
22/06:00pm 11.0 NE 10 12 1027.5 - 0.0 - - - - - - -
22/05:30pm 11.7 ENE 11 13 1027.1 - 0.0 - - - - - - -
22/05:00pm 12.3 ENE 11 12 1027.0 - 0.0 - - - - - - -
22/04:30pm 13.0 ENE 10 11 1027.0 - 0.0 - - - - - - -
22/04:00pm 13.4 ENE 10 11 1026.9 - 0.0 - - - - - - -
22/03:30pm 14.0 NE 10 11 1027.0 - 0.0 - - - - - - -
22/03:00pm 14.1 ENE 11 13 1027.4 - 0.0 - - - - - - -
22/02:30pm 14.3 ENE 10 12 1027.3 - 0.0 - - - - - - -
22/02:00pm 15.0 NE 10 11 1027.4 - 0.0 - - - - - - -
22/01:30pm 14.7 NNE 10 13 1027.7 - 0.0 - - - - - - -
22/01:00pm 14.7 NNE 11 13 1027.8 - 0.0 - - - - - - -
22/12:30pm 14.9 NNE 12 14 1028.3 - 0.0 - - - - - - -
22/12:00pm 15.0 NNE 11 13 1028.9 - 0.0 - - - - - - -
22/11:30am 14.9 NNE 10 14 1029.2 - 0.0 - - - - - - -
22/11:00am 14.8 NNE 8 11 1029.3 - 0.0 - - - - - - -
22/10:30am 14.6 NNE 9 11 1029.5 - 0.0 - - - - - - -
22/10:00am 14.3 N 10 13 1029.8 - 0.0 - - - - - - -
22/09:30am 13.2 N 7 9 1030.1 - 0.0 - - - - - - -
22/09:00am 12.9 NNW 7 8 1030.3 - 0.0 - - - - - - -
22/08:30am 12.7 N 7 9 1030.1 - 0.0 - - - - - - -
22/08:00am 12.0 N 7 9 1030.0 - 0.0 - - - - - - -
22/07:30am 11.6 NNW 5 7 1029.8 - 0.0 - - - - - - -
22/07:00am 10.8 NNW 7 9 1029.7 - 0.0 - - - - - - -
22/06:30am 10.3 NNW 7 9 1029.5 - 0.0 - - - - - - -
22/06:00am 10.0 NNW 8 10 1029.3 - 0.0 - - - - - - -
22/05:30am 10.0 N 8 10 1029.0 - 0.0 - - - - - - -
22/05:00am 9.9 N 9 11 1028.9 - 0.0 - - - - - - -
22/04:30am 9.9 NNW 6 8 1028.7 - 0.0 - - - - - - -
22/04:00am 10.2 NW 8 10 1028.7 - 0.0 - - - - - - -
22/03:30am 10.6 WNW 10 12 1028.7 - 0.0 - - - - - - -
22/03:00am 10.7 WNW 12 14 1029.0 - 0.0 - - - - - - -
22/02:30am 11.0 WNW 11 13 1029.1 - 0.0 - - - - - - -
22/02:00am 10.7 W 11 13 1029.1 - 0.0 - - - - - - -
22/01:30am 10.6 W 12 14 1029.1 - 0.0 - - - - - - -
22/01:00am 10.7 W 11 13 1029.1 - 0.0 - - - - - - -
22/12:30am 10.8 W 12 14 1029.1 - 0.0 - - - - - - -
22/12:00am 10.8 W 12 14 1029.3 - 0.0 - - - - - - -
 
Date/Time
EST
Temp

°C
Wind Pressure Rain
since 9am
mm
Weather Cloud Vis
km
Sea
Height
m
Swell
Dir
 
Speed
knots
Gust
knots
hPa Trend Height
m
Period
s
Dir
21/11:30pm 10.9 W 13 14 1029.3 - 0.0 - - - - - - -
21/11:00pm 10.9 W 14 15 1029.5 - 0.0 - - - - - - -
21/10:30pm 10.9 WSW 14 15 1029.5 - 0.0 - - - - - - -
21/10:00pm 11.1 W 14 16 1029.6 - 0.0 - - - - - - -
21/09:30pm 11.1 W 15 17 1029.7 - 0.0 - - - - - - -
21/09:00pm 11.1 W 15 16 1029.8 - 0.0 - - - - - - -
21/08:30pm 11.2 W 16 17 1029.8 - 0.0 - - - - - - -
21/08:00pm 11.2 W 16 19 1029.7 - 0.0 - - - - - - -
21/07:30pm 11.4 W 17 20 1029.6 - 0.0 - - - - - - -
21/07:00pm 11.4 WSW 19 22 1029.5 - 0.0 - - - - - - -
21/06:30pm 11.5 W 21 24 1029.3 - 0.0 - - - - - - -
21/06:00pm 11.8 W 20 24 1029.1 - 0.0 - - - - - - -
21/05:30pm 12.3 W 20 24 1028.7 - 0.0 - - - - - - -
21/05:00pm 12.9 W 22 25 1028.6 - 0.0 - - - - - - -
21/04:30pm 13.3 W 22 25 1028.6 - 0.0 - - - - - - -
21/04:00pm 13.6 W 23 27 1028.6 - 0.0 - - - - - - -
21/03:30pm 14.2 W 24 27 1028.5 - 0.0 - - - - - - -
21/03:00pm 14.1 W 24 28 1028.7 - 0.0 - - - - - - -
21/02:30pm 14.3 W 23 27 1028.7 - 0.0 - - - - - - -
21/02:00pm 14.4 W 24 27 1028.9 - 0.0 - - - - - - -
21/01:30pm 14.3 W 24 27 1028.9 - 0.0 - - - - - - -
21/01:00pm 14.6 W 25 28 1029.1 - 0.0 - - - - - - -
21/12:30pm 14.4 W 24 28 1029.3 - 0.0 - - - - - - -
21/12:00pm 14.3 W 22 26 1029.6 - 0.0 - - - - - - -
21/11:30am 14.5 W 21 25 1029.8 - 0.0 - - - - - - -
21/11:00am 14.0 W 22 26 1029.9 - 0.0 - - - - - - -
21/10:30am 13.3 W 22 25 1029.9 - 0.0 - - - - - - -
21/10:00am 13.6 WSW 22 25 1029.9 - 0.0 - - - - - - -
21/09:30am 13.4 WSW 21 25 1030.0 - 0.0 - - - - - - -
21/09:00am 12.5 WSW 22 28 1030.0 - 0.0 - - - - - - -
21/08:30am 12.0 WSW 25 30 1029.6 - 0.0 - - - - - - -
21/08:00am 11.9 WSW 23 27 1029.5 - 0.0 - - - - - - -
21/07:30am 11.5 WSW 24 29 1029.4 - 0.0 - - - - - - -
21/07:00am 11.7 WSW 24 30 1028.9 - 0.0 - - - - - - -
21/06:30am 11.1 WSW 25 29 1028.7 - 0.0 - - - - - - -
21/06:00am 10.8 SW 24 30 1028.6 - 0.0 - - - - - - -
21/05:30am 10.6 SW 25 30 1028.1 - 0.0 - - - - - - -
21/05:00am 10.6 WSW 25 30 1027.7 - 0.0 - - - - - - -
21/04:30am 10.6 SW 25 29 1027.5 - 0.0 - - - - - - -
21/04:00am 10.6 SW 26 31 1027.4 - 0.0 - - - - - - -
21/03:30am 10.9 WSW 27 32 1027.5 - 0.0 - - - - - - -
21/03:00am 10.7 WSW 29 33 1027.4 - 0.0 - - - - - - -
21/02:30am 10.6 WSW 28 34 1027.4 - 0.0 - - - - - - -
21/02:00am 10.6 WSW 28 32 1027.5 - 0.0 - - - - - - -
21/01:30am 10.6 WSW 27 32 1027.8 - 0.0 - - - - - - -
21/01:00am 10.6 WSW 26 30 1028.0 - 0.0 - - - - - - -
21/12:30am 10.8 WSW 27 30 1027.8 - 0.0 - - - - - - -
21/12:00am 10.8 WSW 26 30 1028.0 - 0.0 - - - - - - -
 
Date/Time
EST
Temp

°C
Wind Pressure Rain
since 9am
mm
Weather Cloud Vis
km
Sea
Height
m
Swell
Dir
 
Speed
knots
Gust
knots
hPa Trend Height
m
Period
s
Dir
20/11:30pm 10.8 WSW 27 31 1027.8 - 0.0 - - - - - - -
20/11:00pm 11.1 WSW 26 30 1028.0 - 0.0 - - - - - - -
20/10:30pm 10.9 WSW 25 28 1027.9 - 0.0 - - - - - - -
20/10:00pm 11.0 W 24 26 1027.7 - 0.0 - - - - - - -
20/09:30pm 10.9 WSW 24 26 1027.8 - 0.0 - - - - - - -
20/09:00pm 11.2 W 23 27 1028.0 - 0.0 - - - - - - -
20/08:30pm 11.3 WSW 23 27 1027.8 - 0.0 - - - - - - -
20/08:00pm 11.3 WSW 25 28 1027.8 - 0.0 - - - - - - -
20/07:30pm 11.0 WSW 25 29 1027.6 - 0.0 - - - - - - -
20/07:00pm 11.0 WSW 25 28 1027.3 - 0.0 - - - - - - -
20/06:30pm 11.0 WSW 25 29 1027.0 - 0.0 - - - - - - -
20/06:00pm 11.2 WSW 25 30 1027.0 - 0.0 - - - - - - -
20/05:30pm 11.7 WSW 24 28 1026.4 - 0.0 - - - - - - -
20/05:00pm 12.0 WSW 22 26 1026.2 - 0.0 - - - - - - -
20/04:30pm 11.7 WSW 23 26 1026.1 - 0.0 - - - - - - -
20/04:00pm 11.8 WSW 24 27 1025.9 - 0.0 - - - - - - -
20/03:30pm 13.5 WSW 23 27 1025.6 - 0.0 - - - - - - -
20/03:00pm 12.7 WSW 21 25 1025.8 - 0.0 - - - - - - -
20/02:30pm 13.8 WSW 21 25 1025.6 - 0.0 - - - - - - -

Other Formats:

Comma delimited format used in spreadsheet applications
http://www.bom.gov.au/fwo/IDV60701/IDV60701.94949.axf

JavaScript Object Notation format (JSON) in row-major order
http://www.bom.gov.au/fwo/IDV60701/IDV60701.94949.json